Time;durP1;ratioP1;P1;durP2;ratioP2;P2;SDS_P1;SDS_P2;PMS_P1;PMS_P2;Temp;Humidity;BMP_temperature;BMP_pressure;BME280_temperature;BME280_humidity;BME280_pressure;Samples;Min_cycle;Max_cycle;Signal;HPM_P1;HPM_P2
2021/12/21 00:00:51;;;;;;;;;8.50;8.00;;;;;4.13;60.67;101604.78;5039666;28;46259;-75
2021/12/21 00:03:17;;;;;;;;;7.50;4.50;;;;;4.13;60.20;101617.88;5055425;28;45425;-76
2021/12/21 00:05:42;;;;;;;;;11.50;4.00;;;;;4.10;60.00;101605.63;5056102;28;45470;-76
2021/12/21 00:08:10;;;;;;;;;7.00;4.50;;;;;4.12;60.74;101610.91;5056156;28;45333;-76
2021/12/21 00:10:38;;;;;;;;;9.50;9.50;;;;;4.08;60.39;101597.75;5055358;28;45533;-76
2021/12/21 00:13:20;;;;;;;;;12.00;9.00;;;;;4.06;60.11;101596.81;5053516;28;45431;-76
2021/12/21 00:15:58;;;;;;;;;5.50;5.50;;;;;4.02;60.16;101583.63;5034595;28;45359;-76
2021/12/21 00:21:13;;;;;;;;;9.50;8.00;;;;;3.99;60.74;101588.78;5046687;28;46066;-78
2021/12/21 00:23:42;;;;;;;;;10.25;7.00;;;;;3.97;60.43;101583.50;5045095;28;45548;-76
2021/12/21 00:26:17;;;;;;;;;7.25;6.25;;;;;3.91;60.42;101581.63;5052761;28;45454;-76
2021/12/21 00:29:01;;;;;;;;;11.50;7.00;;;;;3.93;60.47;101586.88;5052947;28;45573;-77
2021/12/21 00:31:33;;;;;;;;;5.75;4.00;;;;;3.89;60.29;101587.69;5053164;28;45670;-75
2021/12/21 00:33:59;;;;;;;;;10.50;7.00;;;;;3.89;60.30;101588.56;5053050;28;45521;-76
2021/12/21 00:36:27;;;;;;;;;13.50;11.50;;;;;3.88;61.06;101592.00;5053722;28;45392;-75
2021/12/21 00:38:56;;;;;;;;;11.50;8.50;;;;;3.86;60.46;101582.38;5056288;28;45484;-77
2021/12/21 00:41:21;;;;;;;;;14.75;9.00;;;;;3.83;60.89;101572.72;5048822;28;48321;-75
2021/12/21 00:43:48;;;;;;;;;9.75;6.75;;;;;3.83;60.83;101587.56;5056229;28;45408;-76
2021/12/21 00:46:15;;;;;;;;;11.50;8.50;;;;;3.79;61.13;101581.34;5053311;28;45495;-75
2021/12/21 00:48:49;;;;;;;;;12.75;9.50;;;;;3.83;60.95;101582.31;5057355;28;45389;-77
2021/12/21 00:51:16;;;;;;;;;3.25;3.00;;;;;3.81;61.15;101584.00;5056645;28;45520;-76
2021/12/21 00:53:42;;;;;;;;;10.25;5.00;;;;;3.77;61.17;101576.94;5057355;28;45438;-79
2021/12/21 00:56:07;;;;;;;;;10.50;7.00;;;;;3.67;60.46;101558.38;5044306;28;45578;-80
2021/12/21 00:58:33;;;;;;;;;3.50;2.00;;;;;3.79;61.03;101585.69;5036628;28;45304;-79
2021/12/21 01:01:05;;;;;;;;;7.00;7.00;;;;;3.74;60.49;101573.38;5050667;28;45638;-79
2021/12/21 01:03:32;;;;;;;;;8.00;6.25;;;;;3.73;60.81;101574.25;5055249;28;45466;-79
2021/12/21 01:06:24;;;;;;;;;7.50;6.00;;;;;3.74;61.17;101576.00;5063045;28;45597;-80
2021/12/21 01:11:38;;;;;;;;;9.75;5.00;;;;;3.72;61.20;101569.00;5056061;28;46045;-80
2021/12/21 01:19:16;;;;;;;;;9.75;3.00;;;;;3.68;61.08;101569.75;5046960;28;45362;-80
2021/12/21 01:27:23;;;;;;;;;4.00;4.00;;;;;3.63;61.31;101559.19;5056051;28;45487;-79
2021/12/21 01:30:13;;;;;;;;;6.25;5.00;;;;;3.64;60.92;101560.06;5055045;28;45585;-80
2021/12/21 01:35:47;;;;;;;;;6.75;3.00;;;;;3.62;60.89;101562.63;4998876;28;45475;-80
2021/12/21 01:38:38;;;;;;;;;7.25;3.75;;;;;3.61;60.63;101555.63;5002565;28;45447;-80
2021/12/21 01:41:12;;;;;;;;;4.00;2.00;;;;;3.60;61.06;101558.22;4991357;28;44879;-80
2021/12/21 01:43:47;;;;;;;;;6.75;5.50;;;;;3.54;60.74;101557.22;5000426;28;45314;-81
2021/12/21 01:51:40;;;;;;;;;9.75;7.00;;;;;3.55;61.20;101565.94;4995156;28;45615;-79
2021/12/21 01:54:06;;;;;;;;;6.25;6.25;;;;;3.51;60.66;101553.66;4993933;28;49033;-80
2021/12/21 01:56:32;;;;;;;;;7.00;7.00;;;;;3.52;60.23;101558.94;4993857;28;45564;-79
2021/12/21 01:58:57;;;;;;;;;6.25;6.25;;;;;3.51;61.08;101554.53;4994247;28;45488;-79
2021/12/21 02:01:26;;;;;;;;;8.00;6.50;;;;;3.51;60.99;101562.38;4993011;28;45674;-79
2021/12/21 02:03:52;;;;;;;;;7.50;7.50;;;;;3.51;60.79;101564.13;4995576;28;45519;-79
2021/12/21 02:06:24;;;;;;;;;10.25;7.00;;;;;3.52;60.81;101565.88;4977310;28;45513;-80
2021/12/21 02:08:52;;;;;;;;;6.25;3.50;;;;;3.50;60.58;101562.34;4993844;28;45364;-80
2021/12/21 02:11:17;;;;;;;;;8.50;6.00;;;;;3.49;61.51;101555.34;4993799;28;45480;-80
2021/12/21 02:13:47;;;;;;;;;4.00;4.00;;;;;3.49;61.26;101555.34;5054438;28;46261;-79
2021/12/21 02:16:17;;;;;;;;;5.00;3.25;;;;;3.47;61.34;101543.97;5052300;28;45649;-79
2021/12/21 02:18:52;;;;;;;;;4.00;4.00;;;;;3.46;61.57;101553.56;5055598;28;45316;-78
2021/12/21 02:21:43;;;;;;;;;9.25;4.50;;;;;3.45;61.47;101548.28;5061145;28;45602;-79
2021/12/21 02:24:11;;;;;;;;;6.75;6.25;;;;;3.41;61.94;101544.69;5056511;28;45471;-79
2021/12/21 02:26:46;;;;;;;;;6.00;6.00;;;;;3.43;61.57;101543.03;5040574;28;45486;-77
2021/12/21 02:31:39;;;;;;;;;7.25;5.75;;;;;3.32;61.64;101521.81;5050630;28;45407;-78
2021/12/21 02:34:05;;;;;;;;;11.75;7.50;;;;;3.38;61.26;101532.41;5056250;28;46002;-80
2021/12/21 02:36:31;;;;;;;;;6.25;4.00;;;;;3.38;61.25;101532.41;5055915;28;45523;-80
2021/12/21 02:38:57;;;;;;;;;3.75;3.75;;;;;3.36;61.28;101528.03;5055396;28;45513;-80
2021/12/21 02:41:24;;;;;;;;;6.00;6.00;;;;;3.36;61.45;101521.06;5037422;28;45483;-80
2021/12/21 02:43:50;;;;;;;;;5.50;3.75;;;;;3.32;61.73;101515.72;5043237;28;45954;-79
2021/12/21 02:46:15;;;;;;;;;12.75;7.00;;;;;3.36;61.42;101522.78;5065245;28;45371;-80
2021/12/21 02:48:40;;;;;;;;;7.50;6.00;;;;;3.34;61.73;101514.00;5066081;28;45371;-79
2021/12/21 02:51:21;;;;;;;;;6.00;3.75;;;;;3.34;61.21;101514.91;5055680;28;45565;-79
2021/12/21 02:53:46;;;;;;;;;7.25;5.50;;;;;3.32;61.36;101511.34;5061000;28;45594;-78
2021/12/21 02:56:12;;;;;;;;;9.00;7.00;;;;;3.34;61.93;101507.06;5048915;28;46049;-79
2021/12/21 02:58:38;;;;;;;;;8.75;6.75;;;;;3.36;61.84;101512.34;5062617;28;45358;-79
2021/12/21 03:01:07;;;;;;;;;9.00;6.25;;;;;3.35;61.69;101506.22;5051713;28;45409;-80
2021/12/21 03:03:33;;;;;;;;;6.00;6.00;;;;;3.33;61.37;101497.47;5043035;28;45595;-78
2021/12/21 03:05:59;;;;;;;;;3.25;3.00;;;;;3.28;61.64;101488.63;5055008;28;45417;-80
2021/12/21 03:08:49;;;;;;;;;7.00;6.25;;;;;3.32;61.72;101495.69;5054664;28;45432;-82
2021/12/21 03:14:08;;;;;;;;;6.50;6.50;;;;;3.24;61.89;101492.00;5052935;28;45428;-80
2021/12/21 03:16:35;;;;;;;;;6.00;4.00;;;;;3.27;61.53;101501.66;5035876;28;45568;-79
2021/12/21 03:19:01;;;;;;;;;6.00;3.75;;;;;3.20;61.48;101490.16;5033688;28;45403;-79
2021/12/21 03:21:27;;;;;;;;;4.50;4.00;;;;;3.28;62.25;101504.31;5047046;28;45505;-79
2021/12/21 03:23:52;;;;;;;;;9.00;9.00;;;;;3.26;62.13;101505.97;5053345;28;46853;-78
2021/12/21 03:26:18;;;;;;;;;9.50;9.50;;;;;3.28;62.06;101517.38;5040108;28;45440;-79
2021/12/21 03:28:45;;;;;;;;;7.00;7.00;;;;;3.21;62.13;101497.16;5056115;28;45388;-80
2021/12/21 03:31:10;;;;;;;;;4.00;4.00;;;;;3.23;62.59;101512.88;5038329;28;45689;-80
2021/12/21 03:33:36;;;;;;;;;12.25;6.00;;;;;3.20;63.18;101511.06;5034574;28;45432;-79
2021/12/21 03:36:04;;;;;;;;;4.00;3.00;;;;;3.18;62.96;101507.53;5036237;28;45336;-81
2021/12/21 03:38:31;;;;;;;;;5.75;4.75;;;;;3.16;63.38;101499.66;5034246;28;45356;-80
2021/12/21 03:41:03;;;;;;;;;8.50;6.75;;;;;3.11;62.88;101493.44;5041564;28;45638;-80
2021/12/21 03:43:31;;;;;;;;;6.50;4.00;;;;;3.07;63.21;101498.53;5040130;28;46251;-80
2021/12/21 03:46:14;;;;;;;;;6.00;6.00;;;;;3.03;63.23;101493.22;5048380;28;45550;-79
2021/12/21 03:48:45;;;;;;;;;5.75;4.50;;;;;2.97;63.64;101498.28;5058694;28;44877;-80
2021/12/21 03:51:11;;;;;;;;;4.00;4.00;;;;;2.96;63.72;101499.16;5055223;28;45500;-79
2021/12/21 03:53:37;;;;;;;;;4.00;4.00;;;;;2.95;64.16;101507.81;5080810;28;45474;-79
2021/12/21 03:58:29;;;;;;;;;4.75;4.00;;;;;2.94;64.32;101499.94;5039667;28;45355;-80
2021/12/21 04:00:55;;;;;;;;;6.75;4.00;;;;;2.90;64.10;101504.22;5052001;28;45390;-80
2021/12/21 04:03:20;;;;;;;;;5.00;3.50;;;;;2.77;64.16;101495.16;5066155;28;45426;-79
2021/12/21 04:05:45;;;;;;;;;7.50;6.00;;;;;2.84;64.74;101504.06;5055963;28;45466;-80
2021/12/21 04:08:11;;;;;;;;;5.50;5.50;;;;;2.82;64.63;101503.13;5055262;28;45314;-80
2021/12/21 04:10:36;;;;;;;;;8.00;4.00;;;;;2.78;64.78;101498.66;5053492;28;45495;-80
2021/12/21 04:13:01;;;;;;;;;7.00;4.00;;;;;2.79;65.05;101497.81;5055807;28;45716;-80
2021/12/21 04:15:28;;;;;;;;;0.25;0.00;;;;;2.77;64.82;101500.38;5057386;28;45372;-80
2021/12/21 04:17:54;;;;;;;;;10.50;6.25;;;;;2.74;65.44;101496.81;5058325;28;45485;-80
2021/12/21 04:20:19;;;;;;;;;6.00;5.50;;;;;2.71;65.69;101496.75;5057640;28;45382;-79
2021/12/21 04:22:45;;;;;;;;;2.50;2.50;;;;;2.67;65.84;101496.66;5057508;28;45338;-80
2021/12/21 04:25:10;;;;;;;;;3.25;3.25;;;;;2.63;65.54;101489.59;5063695;28;45357;-80
2021/12/21 04:27:35;;;;;;;;;11.00;4.50;;;;;2.62;65.17;101485.19;5058903;28;45437;-79
2021/12/21 04:30:01;;;;;;;;;6.50;3.00;;;;;2.60;65.37;101494.72;5050458;28;45483;-80
2021/12/21 04:32:26;;;;;;;;;8.00;7.25;;;;;2.58;66.04;101488.59;5052008;28;46052;-80
2021/12/21 04:34:52;;;;;;;;;4.50;3.00;;;;;2.53;66.41;101484.06;5050342;28;45425;-80
2021/12/21 04:37:18;;;;;;;;;6.25;6.25;;;;;2.51;66.58;101481.41;5054949;28;45485;-80
2021/12/21 04:39:50;;;;;;;;;6.75;4.00;;;;;2.55;66.68;101493.72;5040782;28;45693;-79
2021/12/21 04:42:16;;;;;;;;;4.00;4.00;;;;;2.52;66.50;101491.03;5036593;28;47121;-80
2021/12/21 04:44:41;;;;;;;;;6.00;5.00;;;;;2.51;66.07;101491.00;5039560;28;45390;-80
2021/12/21 04:47:06;;;;;;;;;11.25;6.25;;;;;2.51;65.95;101491.00;5055219;28;45584;-79
2021/12/21 04:49:33;;;;;;;;;8.00;6.25;;;;;2.48;66.30;101482.22;5037474;28;45513;-80
2021/12/21 04:51:58;;;;;;;;;10.50;5.50;;;;;2.47;67.26;101485.66;5052923;28;46317;-80
2021/12/21 04:54:24;;;;;;;;;4.00;4.00;;;;;2.43;66.53;101485.53;5054979;28;45464;-81
2021/12/21 04:56:49;;;;;;;;;6.75;4.75;;;;;2.46;66.27;101483.00;5046617;28;45424;-79
2021/12/21 04:59:15;;;;;;;;;7.00;5.50;;;;;2.43;66.43;101488.13;5053282;28;45623;-79
2021/12/21 05:01:40;;;;;;;;;7.00;7.00;;;;;2.37;67.24;101478.44;5056005;28;45413;-80
2021/12/21 05:04:05;;;;;;;;;4.50;3.75;;;;;2.28;66.83;101459.91;5058478;28;45361;-80
2021/12/21 05:06:31;;;;;;;;;6.00;6.00;;;;;2.35;67.75;101484.44;5051654;28;45446;-81
2021/12/21 05:09:09;;;;;;;;;10.75;9.00;;;;;2.34;67.85;101483.56;5067851;28;45380;-80
2021/12/21 05:11:36;;;;;;;;;5.00;5.00;;;;;2.34;67.46;101487.88;5069679;28;45612;-80
2021/12/21 05:14:04;;;;;;;;;7.25;5.00;;;;;2.31;67.40;101483.47;5052704;28;45459;-80
2021/12/21 05:16:30;;;;;;;;;4.00;4.00;;;;;2.29;68.21;101491.25;5054502;28;45445;-81
2021/12/21 05:18:55;;;;;;;;;5.50;5.50;;;;;2.26;67.30;101487.66;5058021;28;45341;-80
2021/12/21 05:21:20;;;;;;;;;7.00;6.50;;;;;2.24;67.35;101492.84;5056725;28;51963;-80
2021/12/21 05:23:45;;;;;;;;;8.00;5.00;;;;;2.22;68.28;101488.44;5055350;28;45481;-80
2021/12/21 05:26:11;;;;;;;;;3.50;3.00;;;;;2.21;67.85;101491.88;5062274;28;45506;-79
2021/12/21 05:28:36;;;;;;;;;4.00;4.00;;;;;2.18;68.11;101486.56;5067984;28;45525;-79
2021/12/21 05:31:02;;;;;;;;;6.00;6.00;;;;;2.16;68.07;101483.91;5062037;28;45254;-81
2021/12/21 05:33:28;;;;;;;;;4.00;1.00;;;;;2.10;68.29;101494.19;5047429;28;45548;-78
2021/12/21 05:35:55;;;;;;;;;5.25;3.25;;;;;2.08;68.04;101494.13;5052614;28;45409;-79
2021/12/21 05:38:29;;;;;;;;;5.75;5.75;;;;;2.08;68.24;101506.28;5037033;28;45593;-80
2021/12/21 05:40:54;;;;;;;;;6.75;3.25;;;;;2.05;67.91;101501.88;5051808;28;46339;-79
2021/12/21 05:43:21;;;;;;;;;6.00;3.00;;;;;2.01;67.84;101491.31;5057180;28;45536;-79
2021/12/21 05:45:46;;;;;;;;;3.75;3.75;;;;;1.99;68.60;101490.34;5055732;28;45433;-80
2021/12/21 05:48:11;;;;;;;;;3.25;2.00;;;;;1.96;68.21;101491.16;5056351;28;45422;-79
2021/12/21 05:50:37;;;;;;;;;5.50;3.00;;;;;1.92;68.36;101491.91;5070420;28;46976;-80
2021/12/21 05:53:03;;;;;;;;;9.75;4.00;;;;;1.91;68.15;101490.13;5053899;28;45659;-80
2021/12/21 05:55:29;;;;;;;;;1.00;1.00;;;;;1.86;68.70;101490.00;5049579;28;45510;-80
2021/12/21 05:57:55;;;;;;;;;5.50;3.00;;;;;1.83;68.87;101489.91;5058223;28;45372;-80
2021/12/21 06:00:28;;;;;;;;;4.00;3.75;;;;;1.79;68.78;101495.84;5057840;28;46218;-79
2021/12/21 06:02:54;;;;;;;;;3.00;0.00;;;;;1.77;68.07;101500.16;5050223;28;45360;-80
2021/12/21 06:05:20;;;;;;;;;3.75;3.00;;;;;1.73;68.35;101493.06;5073597;28;45329;-80
2021/12/21 06:07:48;;;;;;;;;3.25;2.50;;;;;1.74;68.87;101502.66;5066051;28;45394;-79
2021/12/21 06:10:20;;;;;;;;;4.00;4.00;;;;;1.72;68.38;101501.72;5055009;28;47190;-80
2021/12/21 06:13:19;;;;;;;;;1.00;1.00;;;;;1.68;68.30;101505.94;5055834;28;44863;-79
2021/12/21 06:16:09;;;;;;;;;6.50;6.00;;;;;1.68;68.91;101500.72;5055423;28;45465;-80
2021/12/21 06:22:46;;;;;;;;;12.50;6.00;;;;;1.60;68.84;101510.06;5053824;28;46672;-77
2021/12/21 06:26:40;;;;;;;;;5.00;5.00;;;;;1.48;68.66;101507.94;5054786;28;45488;-76
2021/12/21 06:29:05;;;;;;;;;6.00;4.00;;;;;1.46;69.03;101504.41;5056227;28;45757;-77
2021/12/21 06:31:31;;;;;;;;;7.25;3.25;;;;;1.48;69.03;101501.84;5054875;28;45381;-77
2021/12/21 06:33:58;;;;;;;;;3.00;3.00;;;;;1.39;68.82;101492.00;5044345;28;45380;-77
2021/12/21 06:36:23;;;;;;;;;7.00;5.50;;;;;1.45;68.96;101496.53;5044267;28;45475;-78
2021/12/21 06:38:49;;;;;;;;;3.00;2.50;;;;;1.46;69.45;101501.78;5047508;28;45546;-76
2021/12/21 06:41:14;;;;;;;;;8.50;4.50;;;;;1.46;69.64;101507.00;5049725;28;45638;-77
2021/12/21 06:43:40;;;;;;;;;4.00;3.00;;;;;1.39;69.29;101486.78;5034090;28;45424;-76
2021/12/21 06:51:43;;;;;;;;;6.75;6.00;;;;;1.43;69.30;101499.09;5035607;28;45516;-77
2021/12/21 06:54:09;;;;;;;;;6.00;5.00;;;;;1.40;70.12;101493.78;5033519;28;45432;-77
2021/12/21 06:56:36;;;;;;;;;6.00;4.00;;;;;1.35;70.18;101491.03;5032972;28;45364;-75
2021/12/21 06:59:01;;;;;;;;;5.00;3.75;;;;;1.38;70.06;101500.66;5033064;28;45416;-78
2021/12/21 07:01:28;;;;;;;;;7.25;4.00;;;;;1.35;69.75;101495.34;5032801;28;46610;-76
2021/12/21 07:03:56;;;;;;;;;9.25;6.00;;;;;1.33;70.00;101502.22;5032892;28;45451;-77
2021/12/21 07:06:22;;;;;;;;;2.75;2.75;;;;;1.28;70.15;101489.06;5027157;28;45478;-76
2021/12/21 07:08:58;;;;;;;;;3.50;3.50;;;;;1.30;70.12;101496.91;5019954;28;45559;-75
2021/12/21 07:11:43;;;;;;;;;9.75;6.25;;;;;1.28;69.96;101493.41;5031409;28;45501;-77
2021/12/21 07:19:37;;;;;;;;;9.75;6.75;;;;;1.16;70.11;101494.75;5033803;28;45360;-81
2021/12/21 07:22:04;;;;;;;;;9.50;8.00;;;;;1.17;69.58;101501.72;5031974;28;46182;-76
2021/12/21 07:24:31;;;;;;;;;7.00;7.00;;;;;1.11;69.95;101495.41;5035166;28;45646;-76
2021/12/21 07:26:56;;;;;;;;;11.00;9.25;;;;;1.12;69.58;101503.28;5035397;28;45496;-76
2021/12/21 07:29:22;;;;;;;;;14.75;8.00;;;;;1.14;70.18;101500.72;5056484;28;45683;-77
2021/12/21 07:31:47;;;;;;;;;4.50;3.75;;;;;1.13;70.40;101515.47;5053784;28;46127;-77
2021/12/21 07:34:13;;;;;;;;;5.00;5.00;;;;;1.12;69.26;101513.69;5057201;28;45416;-75
2021/12/21 07:36:43;;;;;;;;;7.00;4.50;;;;;1.16;70.46;101514.72;5047272;28;45489;-77
2021/12/21 07:39:10;;;;;;;;;6.75;6.00;;;;;1.15;69.50;101519.00;5034747;28;45548;-77
2021/12/21 07:41:36;;;;;;;;;8.75;8.50;;;;;1.16;69.73;101515.59;5043969;28;46801;-77
2021/12/21 07:44:01;;;;;;;;;6.00;6.00;;;;;1.17;69.18;101517.38;5053881;28;45365;-76
2021/12/21 07:46:27;;;;;;;;;8.00;6.25;;;;;1.19;69.13;101509.59;5044538;28;45460;-75
2021/12/21 07:48:53;;;;;;;;;4.00;4.00;;;;;1.21;69.58;101515.72;5054624;28;45330;-76
2021/12/21 07:51:18;;;;;;;;;7.00;7.00;;;;;1.16;69.68;101507.75;5054152;28;46082;-77
2021/12/21 07:53:45;;;;;;;;;2.50;1.50;;;;;1.11;68.85;101496.31;5054294;28;45287;-77
2021/12/21 07:56:11;;;;;;;;;9.75;7.00;;;;;1.19;69.33;101512.19;5044882;28;45382;-78
2021/12/21 07:58:37;;;;;;;;;6.50;6.00;;;;;1.18;69.32;101516.50;5055002;28;45289;-78
2021/12/21 08:01:05;;;;;;;;;6.25;6.25;;;;;1.19;68.82;101520.88;5051498;28;46228;-81
2021/12/21 08:03:33;;;;;;;;;7.00;4.00;;;;;1.17;68.71;101519.97;5046128;28;45386;-80
2021/12/21 08:06:00;;;;;;;;;3.25;3.25;;;;;1.20;68.81;101513.94;5056653;28;45037;-80
2021/12/21 08:08:26;;;;;;;;;11.75;9.75;;;;;1.24;68.70;101529.75;5054798;28;45322;-80
2021/12/21 08:10:56;;;;;;;;;9.00;7.00;;;;;1.26;69.41;101521.09;5059184;28;46187;-80
2021/12/21 08:13:22;;;;;;;;;8.50;8.00;;;;;1.29;68.65;101521.19;5061872;28;45389;-82
2021/12/21 08:15:48;;;;;;;;;9.25;6.25;;;;;1.33;68.58;101528.28;5052696;28;45451;-78
2021/12/21 08:18:14;;;;;;;;;5.00;5.00;;;;;1.35;69.16;101522.31;5060923;28;45338;-81
2021/12/21 08:20:40;;;;;;;;;5.50;4.50;;;;;1.38;68.33;101527.59;5064045;28;46544;-79
2021/12/21 08:23:07;;;;;;;;;5.00;3.00;;;;;1.39;68.12;101523.28;5041074;28;45434;-76
2021/12/21 08:25:33;;;;;;;;;6.25;4.00;;;;;1.39;68.20;101521.53;5049394;28;45338;-80
2021/12/21 08:28:00;;;;;;;;;7.00;6.00;;;;;1.38;67.69;101524.09;5040440;28;45626;-80
2021/12/21 08:30:27;;;;;;;;;8.00;4.50;;;;;1.37;68.25;101530.16;5044655;28;46472;-80
2021/12/21 08:32:53;;;;;;;;;4.75;3.75;;;;;1.30;68.29;101522.97;5054292;28;45479;-79
2021/12/21 08:35:19;;;;;;;;;8.50;6.00;;;;;1.33;68.65;101533.50;5050043;28;44779;-79
2021/12/21 08:37:51;;;;;;;;;4.50;3.75;;;;;1.40;68.21;101519.84;5056453;28;45405;-79
2021/12/21 08:40:17;;;;;;;;;10.00;9.50;;;;;1.44;68.03;101520.81;5047809;28;45445;-79
2021/12/21 08:42:46;;;;;;;;;7.00;6.00;;;;;1.46;68.26;101525.25;5049730;28;45475;-79
2021/12/21 08:45:11;;;;;;;;;8.50;7.75;;;;;1.52;68.20;101519.31;5049922;28;45370;-81
2021/12/21 08:47:37;;;;;;;;;6.00;4.00;;;;;1.51;67.33;101515.84;5053543;28;45275;-78
2021/12/21 08:50:08;;;;;;;;;12.00;9.25;;;;;1.56;67.15;101519.50;5039518;28;46030;-78
2021/12/21 08:52:37;;;;;;;;;13.75;11.75;;;;;1.58;67.15;101528.25;5053138;28;45482;-79
2021/12/21 08:55:05;;;;;;;;;12.00;8.00;;;;;1.65;67.80;101516.28;5051741;28;45662;-77
2021/12/21 08:57:31;;;;;;;;;8.50;6.50;;;;;1.64;67.23;101526.66;5051666;28;45660;-79
2021/12/21 08:59:56;;;;;;;;;10.00;10.00;;;;;1.63;67.40;101522.31;5050123;28;45505;-77
2021/12/21 09:02:22;;;;;;;;;5.00;4.00;;;;;1.66;66.99;101512.84;5052312;28;45430;-78
2021/12/21 09:04:47;;;;;;;;;17.75;9.00;;;;;1.79;67.28;101521.91;5053770;28;45400;-77
2021/12/21 09:07:13;;;;;;;;;13.75;8.25;;;;;2.02;66.57;101530.47;5045577;27;45516;-81
2021/12/21 09:09:38;;;;;;;;;3.50;3.00;;;;;2.39;65.29;101522.84;5050401;28;46128;-80
2021/12/21 09:12:04;;;;;;;;;12.50;9.00;;;;;2.92;63.78;101528.66;5046080;28;45413;-81
2021/12/21 09:14:32;;;;;;;;;6.50;6.25;;;;;3.25;63.11;101530.38;5046389;28;45568;-81
2021/12/21 09:16:58;;;;;;;;;9.50;8.00;;;;;3.54;61.40;101536.31;5047472;28;45589;-81
2021/12/21 09:19:23;;;;;;;;;5.00;5.00;;;;;4.02;60.37;101529.53;5046279;28;46128;-80
2021/12/21 09:21:49;;;;;;;;;6.75;5.50;;;;;4.45;59.56;101529.59;5047544;28;45538;-81
2021/12/21 09:24:15;;;;;;;;;7.00;6.00;;;;;4.84;57.73;101530.34;5054087;28;45473;-81
2021/12/21 09:26:40;;;;;;;;;12.25;8.25;;;;;4.86;56.94;101523.38;5046132;28;45532;-80
2021/12/21 09:29:06;;;;;;;;;15.00;8.00;;;;;5.02;56.52;101540.28;5049312;28;45411;-82
2021/12/21 09:31:31;;;;;;;;;15.25;12.25;;;;;4.97;56.22;101522.72;5049180;28;45748;-81
2021/12/21 09:33:58;;;;;;;;;15.00;9.25;;;;;5.49;56.11;101529.72;5048205;28;45431;-81
2021/12/21 09:36:25;;;;;;;;;12.25;10.00;;;;;5.63;55.15;101527.31;5046933;28;45486;-81
2021/12/21 09:38:51;;;;;;;;;6.50;6.25;;;;;5.68;55.01;101528.28;5049358;28;46444;-81
2021/12/21 09:41:18;;;;;;;;;9.50;8.75;;;;;5.50;55.11;101534.97;5045172;28;45423;-79
2021/12/21 09:43:43;;;;;;;;;23.00;14.25;;;;;5.67;55.02;101527.38;5048161;28;45522;-81
2021/12/21 09:46:09;;;;;;;;;7.00;6.00;;;;;5.67;53.67;101535.25;5057931;28;45394;-81
2021/12/21 09:48:35;;;;;;;;;11.50;7.50;;;;;5.85;53.96;101518.91;5045013;28;46440;-79
2021/12/21 09:51:01;;;;;;;;;9.00;9.00;;;;;6.23;53.57;101534.31;5047461;28;45548;-81
2021/12/21 09:53:27;;;;;;;;;11.25;9.25;;;;;6.69;52.64;101535.75;5052976;28;45514;-81
2021/12/21 09:55:52;;;;;;;;;5.00;5.00;;;;;6.89;52.52;101542.13;5057219;28;45417;-79
2021/12/21 09:58:18;;;;;;;;;7.75;7.50;;;;;7.20;51.51;101542.41;5057559;28;45446;-81
2021/12/21 10:01:03;;;;;;;;;13.50;11.00;;;;;7.62;51.20;101540.13;5061601;28;45488;-81
2021/12/21 10:03:30;;;;;;;;;8.50;7.00;;;;;7.82;49.68;101538.53;5059627;28;45421;-76
2021/12/21 10:06:10;;;;;;;;;9.25;5.50;;;;;8.13;51.66;101543.97;5046522;28;45342;-79
2021/12/21 10:08:35;;;;;;;;;10.25;7.50;;;;;8.35;49.34;101542.34;5052068;28;45477;-78
2021/12/21 10:11:01;;;;;;;;;15.50;9.75;;;;;8.35;48.30;101538.78;5050341;28;45437;-79
2021/12/21 10:13:28;;;;;;;;;13.75;13.75;;;;;8.26;47.46;101544.03;5056770;28;45396;-80
2021/12/21 10:16:00;;;;;;;;;21.50;14.00;;;;;8.08;48.51;101536.94;5060313;28;45298;-81
2021/12/21 10:18:32;;;;;;;;;16.00;11.00;;;;;7.87;47.97;101541.19;5072676;28;45554;-81
2021/12/21 10:21:01;;;;;;;;;17.50;13.00;;;;;7.94;47.88;101545.63;5049555;28;45584;-79
2021/12/21 10:23:28;;;;;;;;;10.50;9.00;;;;;8.15;48.53;101538.69;5055578;28;45427;-82
2021/12/21 10:26:24;;;;;;;;;3.75;2.50;;;;;8.66;47.73;101547.75;5060608;28;45411;-81
2021/12/21 10:28:53;;;;;;;;;17.00;11.50;;;;;9.31;45.85;101534.69;5059809;28;45585;-82
2021/12/21 10:31:32;;;;;;;;;6.25;1.25;;;;;9.81;45.13;101529.38;5048679;28;45599;-81
2021/12/21 10:33:59;;;;;;;;;15.50;9.50;;;;;9.99;44.25;101524.06;5041794;28;45626;-81
2021/12/21 10:36:26;;;;;;;;;18.75;14.00;;;;;9.86;44.05;101519.69;5053806;28;45554;-81
2021/12/21 10:39:01;;;;;;;;;9.50;6.00;;;;;9.90;43.78;101519.69;5071473;28;46782;-81
2021/12/21 10:41:38;;;;;;;;;35.25;28.75;;;;;9.82;43.85;101526.72;5062018;28;45283;-80
2021/12/21 10:44:12;;;;;;;;;10.50;6.75;;;;;9.76;44.02;101530.28;5051044;28;45370;-80
2021/12/21 10:46:41;;;;;;;;;18.00;12.00;;;;;9.34;44.79;101518.00;5064048;28;45356;-81
2021/12/21 10:49:13;;;;;;;;;19.00;12.75;;;;;8.98;45.41;101527.63;5047543;28;46565;-81
2021/12/21 10:51:51;;;;;;;;;16.25;14.50;;;;;9.25;45.20;101517.09;5054998;28;45799;-82
2021/12/21 10:54:30;;;;;;;;;26.25;23.25;;;;;9.59;44.44;101517.06;5058252;28;45516;-82
2021/12/21 10:57:00;;;;;;;;;21.75;20.00;;;;;9.73;44.19;101513.53;5053562;28;45521;-84
2021/12/21 10:59:30;;;;;;;;;10.00;10.00;;;;;10.03;44.15;101517.88;5058212;28;45529;-84
2021/12/21 11:02:08;;;;;;;;;21.50;15.00;;;;;10.32;43.37;101514.25;5055290;28;45398;-81
2021/12/21 11:04:41;;;;;;;;;13.50;13.50;;;;;10.64;43.28;101506.22;5066262;28;45340;-82
2021/12/21 11:07:25;;;;;;;;;13.00;7.50;;;;;10.91;42.33;101506.06;5062562;28;45423;-82
2021/12/21 11:10:12;;;;;;;;;12.50;10.25;;;;;10.89;41.72;101499.91;5053024;28;45475;-82
2021/12/21 11:13:05;;;;;;;;;25.75;23.75;;;;;10.62;42.49;101509.75;5041365;28;45195;-83
2021/12/21 11:15:53;;;;;;;;;20.50;18.00;;;;;10.96;42.16;101512.19;5050270;28;45547;-82
2021/12/21 11:18:20;;;;;;;;;18.25;16.25;;;;;11.40;41.64;101500.38;5039689;28;45463;-83
2021/12/21 11:20:55;;;;;;;;;21.00;16.00;;;;;11.45;40.52;101502.97;5043272;28;47246;-83
2021/12/21 11:23:25;;;;;;;;;15.00;13.00;;;;;11.27;40.37;101501.41;5045315;28;45397;-81
2021/12/21 11:25:54;;;;;;;;;29.75;23.00;;;;;10.94;41.25;101493.69;5043931;28;45496;-83
2021/12/21 11:28:26;;;;;;;;;13.50;9.25;;;;;10.59;41.53;101497.41;5045436;28;45496;-82
2021/12/21 11:30:58;;;;;;;;;12.25;10.50;;;;;10.33;42.12;101492.28;5040747;28;45555;-83
2021/12/21 11:33:25;;;;;;;;;9.75;9.00;;;;;10.28;42.01;101491.41;5038815;28;45473;-82
2021/12/21 11:38:37;;;;;;;;;45.00;43.75;;;;;10.01;43.31;101495.00;5033547;28;45574;-82
2021/12/21 11:41:04;;;;;;;;;17.00;14.50;;;;;10.18;42.63;101489.66;5031458;28;45866;-82
2021/12/21 11:43:52;;;;;;;;;12.25;7.00;;;;;10.66;42.62;101477.13;5036013;28;45543;-83
2021/12/21 11:46:28;;;;;;;;;16.25;13.00;;;;;10.97;41.62;101479.56;5041059;28;45712;-83
2021/12/21 11:49:02;;;;;;;;;40.75;35.75;;;;;10.95;41.72;101476.06;5045515;28;45464;-83
2021/12/21 11:51:28;;;;;;;;;42.50;40.25;;;;;11.12;41.12;101479.44;5040920;28;46387;-82
2021/12/21 11:53:55;;;;;;;;;22.25;19.25;;;;;10.95;41.56;101470.78;5037223;28;45408;-84
2021/12/21 11:56:23;;;;;;;;;23.50;21.25;;;;;11.11;40.98;101476.81;5045398;28;45412;-83
2021/12/21 11:58:53;;;;;;;;;16.00;13.50;;;;;11.00;41.71;101459.25;5043579;28;45528;-83
2021/12/21 12:01:23;;;;;;;;;28.25;28.25;;;;;11.22;41.07;101463.50;5044687;28;45529;-82
2021/12/21 12:04:06;;;;;;;;;23.75;18.00;;;;;10.79;41.30;101444.41;5048001;28;45846;-83
2021/12/21 12:06:49;;;;;;;;;15.75;15.00;;;;;10.74;41.27;101463.88;5056808;28;45500;-81
2021/12/21 12:09:30;;;;;;;;;35.75;23.75;;;;;10.77;41.64;101471.78;5039982;28;45314;-82
2021/12/21 12:12:14;;;;;;;;;3.25;3.25;;;;;10.81;41.79;101468.19;5050943;28;47298;-82
2021/12/21 12:14:41;;;;;;;;;14.00;14.00;;;;;10.81;41.44;101462.91;5051775;28;45491;-82
2021/12/21 12:17:26;;;;;;;;;22.50;14.75;;;;;10.55;41.58;101460.44;5041869;28;45421;-82
2021/12/21 12:20:01;;;;;;;;;24.75;20.00;;;;;10.32;42.36;101449.09;5048869;28;45468;-82
2021/12/21 12:22:41;;;;;;;;;12.50;9.50;;;;;10.24;42.42;101444.72;5051079;28;46269;-82
2021/12/21 12:25:12;;;;;;;;;28.25;26.75;;;;;10.36;42.79;101447.34;5050334;28;45539;-83
2021/12/21 12:27:47;;;;;;;;;19.00;13.50;;;;;10.60;42.52;101438.38;5037458;28;45713;-82
2021/12/21 12:30:16;;;;;;;;;29.25;28.25;;;;;10.76;42.03;101439.16;5040649;28;45720;-83